This is the latest recevied weather packets stored in our database for station/object DO7ZT-10. If no packets are shown the sender has not sent any weather packets the latest 10 day(s).
| Time | Temp. | Humidity | Pressure | Rain* | Wind** | Luminosity | Snow |
|---|---|---|---|---|---|---|---|
| 1787952711 | 20.56° C | 71% | 1013.6 hPa | - | - | - | - |
| 1787951811 | 20.56° C | 70% | 1013.6 hPa | - | - | - | - |
| 1787950911 | 20° C | 77% | 1013.8 hPa | - | - | - | - |
| 1787950011 | 20° C | 79% | 1013.7 hPa | - | - | - | - |
| 1787949111 | 19.44° C | 81% | 1013.4 hPa | - | - | - | - |
| 1787948211 | 19.44° C | 82% | 1011.9 hPa | - | - | - | - |
| 1787947311 | 19.44° C | 82% | 1011.8 hPa | - | - | - | - |
| 1787946411 | 19.44° C | 81% | 1012.3 hPa | - | - | - | - |
| 1787945510 | 19.44° C | 81% | 1012.1 hPa | - | - | - | - |
| 1787944610 | 19.44° C | 83% | 1012 hPa | - | - | - | - |
| 1787943710 | 19.44° C | 83% | 1012.2 hPa | - | - | - | - |
| 1787942810 | 20° C | 82% | 1012.6 hPa | - | - | - | - |
| 1787941910 | 20.56° C | 82% | 1012.7 hPa | - | - | - | - |
| 1787941010 | 20.56° C | 82% | 1012.8 hPa | - | - | - | - |
| 1787940110 | 20° C | 82% | 1013 hPa | - | - | - | - |
| 1787939210 | 20° C | 85% | 1012.7 hPa | - | - | - | - |
| 1787938310 | 20.56° C | 84% | 1012.4 hPa | - | - | - | - |
| 1787937410 | 20° C | 87% | 1012.2 hPa | - | - | - | - |
| 1787936510 | 20.56° C | 84% | 1012.1 hPa | - | - | - | - |
| 1787935610 | 20.56° C | 84% | 1012.2 hPa | - | - | - | - |
| 1787934710 | 21.11° C | 84% | 1012.1 hPa | - | - | - | - |
| 1787933810 | 21.11° C | 81% | 1012.6 hPa | - | - | - | - |
| 1787932909 | 23.33° C | 67% | 1013.2 hPa | - | - | - | - |
| 1787932009 | 23.89° C | 59% | 1013.6 hPa | - | - | - | - |
| 1787931109 | 23.89° C | 59% | 1013.2 hPa | - | - | - | - |
* Rain since midnight (hover to see other rain measurements)
** Current wind speed in m/s (hover to see current wind gust speed)